sensor_id;sensor_type;location;lat;lon;timestamp;pressure;altitude;pressure_sealevel;temperature;humidity
3668;BME280;24099;47.102;15.440;2023-01-28T00:01:57;97216.25;;;-0.92;100.00
3668;BME280;24099;47.102;15.440;2023-01-28T00:04:26;97208.16;;;-1.11;100.00
3668;BME280;24099;47.102;15.440;2023-01-28T00:07:04;97207.94;;;-1.08;100.00
3668;BME280;24099;47.102;15.440;2023-01-28T00:09:35;97210.22;;;-1.03;100.00
3668;BME280;24099;47.102;15.440;2023-01-28T00:12:11;97219.22;;;-1.09;100.00
3668;BME280;24099;47.102;15.440;2023-01-28T00:14:38;97217.38;;;-1.20;100.00
3668;BME280;24099;47.102;15.440;2023-01-28T00:17:06;97217.00;;;-1.26;100.00
3668;BME280;24099;47.102;15.440;2023-01-28T00:19:36;97210.91;;;-1.25;100.00
3668;BME280;24099;47.102;15.440;2023-01-28T00:22:06;97226.19;;;-1.22;100.00
3668;BME280;24099;47.102;15.440;2023-01-28T00:24:37;97224.94;;;-1.29;100.00
3668;BME280;24099;47.102;15.440;2023-01-28T00:27:05;97228.88;;;-1.24;100.00
3668;BME280;24099;47.102;15.440;2023-01-28T00:29:33;97225.00;;;-1.18;100.00
3668;BME280;24099;47.102;15.440;2023-01-28T00:32:00;97231.00;;;-1.18;100.00
3668;BME280;24099;47.102;15.440;2023-01-28T00:34:29;97229.66;;;-1.11;100.00
3668;BME280;24099;47.102;15.440;2023-01-28T00:36:58;97235.06;;;-1.26;100.00
3668;BME280;24099;47.102;15.440;2023-01-28T00:39:27;97247.78;;;-1.36;100.00
3668;BME280;24099;47.102;15.440;2023-01-28T00:41:54;97233.00;;;-1.34;100.00
3668;BME280;24099;47.102;15.440;2023-01-28T00:44:24;97232.81;;;-1.31;100.00
3668;BME280;24099;47.102;15.440;2023-01-28T00:46:52;97229.91;;;-1.39;100.00
3668;BME280;24099;47.102;15.440;2023-01-28T00:49:21;97236.03;;;-1.40;100.00
3668;BME280;24099;47.102;15.440;2023-01-28T00:51:49;97240.47;;;-1.42;100.00
3668;BME280;24099;47.102;15.440;2023-01-28T00:54:19;97247.69;;;-1.34;100.00
3668;BME280;24099;47.102;15.440;2023-01-28T00:56:47;97241.56;;;-1.21;100.00
3668;BME280;24099;47.102;15.440;2023-01-28T00:59:15;97241.56;;;-1.21;100.00
3668;BME280;24099;47.102;15.440;2023-01-28T01:01:43;97243.03;;;-1.29;100.00
3668;BME280;24099;47.102;15.440;2023-01-28T01:04:14;97249.63;;;-1.38;100.00
3668;BME280;24099;47.102;15.440;2023-01-28T01:07:05;97245.47;;;-1.15;100.00
3668;BME280;24099;47.102;15.440;2023-01-28T01:09:38;97256.41;;;-1.12;100.00
3668;BME280;24099;47.102;15.440;2023-01-28T01:12:06;97254.84;;;-1.14;100.00
3668;BME280;24099;47.102;15.440;2023-01-28T01:14:34;97244.41;;;-1.13;100.00
3668;BME280;24099;47.102;15.440;2023-01-28T01:17:02;97243.38;;;-1.10;100.00
3668;BME280;24099;47.102;15.440;2023-01-28T01:19:30;97250.53;;;-1.14;100.00
3668;BME280;24099;47.102;15.440;2023-01-28T01:21:57;97253.75;;;-1.23;100.00
3668;BME280;24099;47.102;15.440;2023-01-28T01:24:26;97255.53;;;-1.23;100.00
3668;BME280;24099;47.102;15.440;2023-01-28T01:27:03;97252.09;;;-1.24;100.00
3668;BME280;24099;47.102;15.440;2023-01-28T01:29:35;97248.91;;;-1.27;100.00
3668;BME280;24099;47.102;15.440;2023-01-28T01:32:03;97247.22;;;-1.16;100.00
3668;BME280;24099;47.102;15.440;2023-01-28T01:34:31;97254.34;;;-1.19;100.00
3668;BME280;24099;47.102;15.440;2023-01-28T01:36:59;97260.31;;;-1.43;100.00
3668;BME280;24099;47.102;15.440;2023-01-28T01:39:48;97246.38;;;-1.16;100.00
3668;BME280;24099;47.102;15.440;2023-01-28T01:42:18;97251.28;;;-1.24;100.00
3668;BME280;24099;47.102;15.440;2023-01-28T01:44:54;97253.56;;;-1.32;100.00
3668;BME280;24099;47.102;15.440;2023-01-28T01:47:26;97258.22;;;-1.38;100.00
3668;BME280;24099;47.102;15.440;2023-01-28T01:50:06;97255.16;;;-1.19;100.00
3668;BME280;24099;47.102;15.440;2023-01-28T01:52:40;97258.16;;;-1.12;100.00
3668;BME280;24099;47.102;15.440;2023-01-28T01:55:11;97261.66;;;-1.13;100.00
3668;BME280;24099;47.102;15.440;2023-01-28T01:57:42;97257.59;;;-1.28;100.00
3668;BME280;24099;47.102;15.440;2023-01-28T02:00:12;97261.00;;;-1.28;100.00
3668;BME280;24099;47.102;15.440;2023-01-28T02:02:42;97263.06;;;-1.20;100.00
3668;BME280;24099;47.102;15.440;2023-01-28T02:05:12;97268.91;;;-1.18;100.00
3668;BME280;24099;47.102;15.440;2023-01-28T02:07:41;97263.25;;;-1.23;100.00
3668;BME280;24099;47.102;15.440;2023-01-28T02:10:11;97269.72;;;-1.18;100.00
3668;BME280;24099;47.102;15.440;2023-01-28T02:12:42;97269.34;;;-1.37;100.00
3668;BME280;24099;47.102;15.440;2023-01-28T02:15:14;97277.47;;;-1.18;100.00
3668;BME280;24099;47.102;15.440;2023-01-28T02:17:44;97276.16;;;-1.23;100.00
3668;BME280;24099;47.102;15.440;2023-01-28T02:20:14;97276.44;;;-1.15;100.00
3668;BME280;24099;47.102;15.440;2023-01-28T02:23:20;97265.09;;;-1.13;100.00
3668;BME280;24099;47.102;15.440;2023-01-28T02:26:25;97267.03;;;-1.16;100.00
3668;BME280;24099;47.102;15.440;2023-01-28T02:29:07;97262.34;;;-1.35;100.00
3668;BME280;24099;47.102;15.440;2023-01-28T02:31:41;97264.59;;;-1.30;100.00
3668;BME280;24099;47.102;15.440;2023-01-28T02:34:16;97263.47;;;-1.26;100.00
3668;BME280;24099;47.102;15.440;2023-01-28T02:36:49;97266.22;;;-1.17;100.00
3668;BME280;24099;47.102;15.440;2023-01-28T02:39:23;97255.47;;;-1.11;100.00
3668;BME280;24099;47.102;15.440;2023-01-28T02:41:54;97262.34;;;-0.98;100.00
3668;BME280;24099;47.102;15.440;2023-01-28T02:44:26;97262.84;;;-1.30;100.00
3668;BME280;24099;47.102;15.440;2023-01-28T02:46:54;97260.94;;;-1.15;100.00
3668;BME280;24099;47.102;15.440;2023-01-28T02:49:41;97257.53;;;-1.16;100.00
3668;BME280;24099;47.102;15.440;2023-01-28T02:52:32;97249.69;;;-1.14;100.00
3668;BME280;24099;47.102;15.440;2023-01-28T02:55:31;97251.34;;;-1.13;100.00
3668;BME280;24099;47.102;15.440;2023-01-28T02:58:09;97258.22;;;-1.38;100.00
3668;BME280;24099;47.102;15.440;2023-01-28T03:00:49;97256.78;;;-1.42;100.00
3668;BME280;24099;47.102;15.440;2023-01-28T03:03:25;97266.47;;;-1.32;100.00
3668;BME280;24099;47.102;15.440;2023-01-28T03:05:59;97260.56;;;-1.22;100.00
3668;BME280;24099;47.102;15.440;2023-01-28T03:08:35;97260.47;;;-1.20;100.00
3668;BME280;24099;47.102;15.440;2023-01-28T03:11:23;97266.22;;;-1.17;100.00
3668;BME280;24099;47.102;15.440;2023-01-28T03:14:10;97269.00;;;-1.20;100.00
3668;BME280;24099;47.102;15.440;2023-01-28T03:16:59;97261.59;;;-1.24;100.00
3668;BME280;24099;47.102;15.440;2023-01-28T03:19:46;97255.31;;;-1.20;100.00
3668;BME280;24099;47.102;15.440;2023-01-28T03:22:36;97264.03;;;-1.47;100.00
3668;BME280;24099;47.102;15.440;2023-01-28T03:25:26;97263.16;;;-1.22;100.00
3668;BME280;24099;47.102;15.440;2023-01-28T03:28:15;97266.56;;;-1.34;100.00
3668;BME280;24099;47.102;15.440;2023-01-28T03:31:04;97267.25;;;-1.19;100.00
3668;BME280;24099;47.102;15.440;2023-01-28T03:33:58;97262.91;;;-1.19;100.00
3668;BME280;24099;47.102;15.440;2023-01-28T03:36:45;97267.25;;;-1.19;100.00
3668;BME280;24099;47.102;15.440;2023-01-28T03:39:33;97268.09;;;-1.19;100.00
3668;BME280;24099;47.102;15.440;2023-01-28T03:42:05;97271.69;;;-1.09;100.00
3668;BME280;24099;47.102;15.440;2023-01-28T03:44:34;97272.22;;;-1.16;100.00
3668;BME280;24099;47.102;15.440;2023-01-28T03:47:19;97274.38;;;-1.10;100.00
3668;BME280;24099;47.102;15.440;2023-01-28T03:49:52;97274.78;;;-1.16;100.00
3668;BME280;24099;47.102;15.440;2023-01-28T03:52:23;97271.16;;;-1.01;100.00
3668;BME280;24099;47.102;15.440;2023-01-28T03:54:56;97269.66;;;-1.29;100.00
3668;BME280;24099;47.102;15.440;2023-01-28T03:57:27;97265.84;;;-1.23;100.00
3668;BME280;24099;47.102;15.440;2023-01-28T03:59:59;97253.75;;;-1.23;100.00
3668;BME280;24099;47.102;15.440;2023-01-28T04:02:28;97251.50;;;-1.27;100.00
3668;BME280;24099;47.102;15.440;2023-01-28T04:04:58;97252.13;;;-1.36;100.00
3668;BME280;24099;47.102;15.440;2023-01-28T04:07:27;97254.47;;;-1.21;100.00
3668;BME280;24099;47.102;15.440;2023-01-28T04:10:17;97253.03;;;-1.38;100.00
3668;BME280;24099;47.102;15.440;2023-01-28T04:12:57;97255.09;;;-1.30;100.00
3668;BME280;24099;47.102;15.440;2023-01-28T04:15:28;97258.63;;;-1.31;100.00
3668;BME280;24099;47.102;15.440;2023-01-28T04:17:57;97264.19;;;-1.37;100.00
3668;BME280;24099;47.102;15.440;2023-01-28T04:20:31;97260.16;;;-1.28;100.00
3668;BME280;24099;47.102;15.440;2023-01-28T04:23:01;97255.00;;;-1.28;100.00
3668;BME280;24099;47.102;15.440;2023-01-28T04:25:33;97270.19;;;-1.36;100.00
3668;BME280;24099;47.102;15.440;2023-01-28T04:28:07;97259.56;;;-1.32;100.00
3668;BME280;24099;47.102;15.440;2023-01-28T04:30:36;97265.94;;;-1.38;100.00
3668;BME280;24099;47.102;15.440;2023-01-28T04:33:13;97271.84;;;-1.35;100.00
3668;BME280;24099;47.102;15.440;2023-01-28T04:35:53;97275.69;;;-1.54;100.00
3668;BME280;24099;47.102;15.440;2023-01-28T04:38:35;97278.38;;;-1.43;100.00
3668;BME280;24099;47.102;15.440;2023-01-28T04:41:18;97287.63;;;-1.27;100.00
3668;BME280;24099;47.102;15.440;2023-01-28T04:43:46;97280.09;;;-1.30;100.00
3668;BME280;24099;47.102;15.440;2023-01-28T04:46:36;97282.38;;;-1.26;100.00
3668;BME280;24099;47.102;15.440;2023-01-28T04:49:23;97281.34;;;-1.36;100.00
3668;BME280;24099;47.102;15.440;2023-01-28T04:52:13;97284.88;;;-1.50;100.00
3668;BME280;24099;47.102;15.440;2023-01-28T04:54:57;97283.72;;;-1.33;100.00
3668;BME280;24099;47.102;15.440;2023-01-28T04:57:26;97286.19;;;-1.31;100.00
3668;BME280;24099;47.102;15.440;2023-01-28T04:59:55;97285.38;;;-1.32;100.00
3668;BME280;24099;47.102;15.440;2023-01-28T05:02:23;97293.94;;;-1.31;100.00
3668;BME280;24099;47.102;15.440;2023-01-28T05:04:52;97303.44;;;-1.32;100.00
3668;BME280;24099;47.102;15.440;2023-01-28T05:07:37;97297.97;;;-1.27;100.00
3668;BME280;24099;47.102;15.440;2023-01-28T05:10:06;97309.09;;;-1.40;100.00
3668;BME280;24099;47.102;15.440;2023-01-28T05:12:38;97300.88;;;-1.57;100.00
3668;BME280;24099;47.102;15.440;2023-01-28T05:15:08;97299.03;;;-1.43;100.00
3668;BME280;24099;47.102;15.440;2023-01-28T05:17:36;97309.25;;;-1.41;100.00
3668;BME280;24099;47.102;15.440;2023-01-28T05:20:14;97307.16;;;-1.49;100.00
3668;BME280;24099;47.102;15.440;2023-01-28T05:22:50;97314.09;;;-1.49;100.00
3668;BME280;24099;47.102;15.440;2023-01-28T05:25:28;97311.00;;;-1.42;100.00
3668;BME280;24099;47.102;15.440;2023-01-28T05:27:59;97319.16;;;-1.48;100.00
3668;BME280;24099;47.102;15.440;2023-01-28T05:30:30;97318.41;;;-1.50;100.00
3668;BME280;24099;47.102;15.440;2023-01-28T05:32:58;97325.66;;;-1.42;100.00
3668;BME280;24099;47.102;15.440;2023-01-28T05:35:26;97326.16;;;-1.37;100.00
3668;BME280;24099;47.102;15.440;2023-01-28T05:37:56;97321.09;;;-1.51;100.00
3668;BME280;24099;47.102;15.440;2023-01-28T05:40:28;97337.50;;;-1.52;100.00
3668;BME280;24099;47.102;15.440;2023-01-28T05:43:02;97334.09;;;-1.53;100.00
3668;BME280;24099;47.102;15.440;2023-01-28T05:45:39;97340.59;;;-1.34;100.00
3668;BME280;24099;47.102;15.440;2023-01-28T05:51:31;97350.63;;;-1.43;100.00
3668;BME280;24099;47.102;15.440;2023-01-28T05:54:01;97347.94;;;-1.28;100.00
3668;BME280;24099;47.102;15.440;2023-01-28T05:56:35;97346.38;;;-1.31;100.00
3668;BME280;24099;47.102;15.440;2023-01-28T05:59:11;97343.91;;;-1.32;100.00
3668;BME280;24099;47.102;15.440;2023-01-28T06:01:44;97348.03;;;-1.30;100.00
3668;BME280;24099;47.102;15.440;2023-01-28T06:04:50;97357.94;;;-1.36;100.00
3668;BME280;24099;47.102;15.440;2023-01-28T06:07:19;97364.47;;;-1.44;100.00
3668;BME280;24099;47.102;15.440;2023-01-28T06:09:49;97354.66;;;-1.26;100.00
3668;BME280;24099;47.102;15.440;2023-01-28T06:12:23;97349.38;;;-1.24;100.00
3668;BME280;24099;47.102;15.440;2023-01-28T06:15:14;97357.66;;;-1.32;100.00
3668;BME280;24099;47.102;15.440;2023-01-28T06:18:06;97358.06;;;-1.25;100.00
3668;BME280;24099;47.102;15.440;2023-01-28T06:21:13;97360.34;;;-1.21;100.00
3668;BME280;24099;47.102;15.440;2023-01-28T06:23:43;97369.53;;;-1.29;100.00
3668;BME280;24099;47.102;15.440;2023-01-28T06:26:14;97374.16;;;-1.47;100.00
3668;BME280;24099;47.102;15.440;2023-01-28T06:29:01;97386.16;;;-1.33;100.00
3668;BME280;24099;47.102;15.440;2023-01-28T06:31:30;97382.31;;;-1.28;100.00
3668;BME280;24099;47.102;15.440;2023-01-28T06:33:58;97375.50;;;-1.29;100.00
3668;BME280;24099;47.102;15.440;2023-01-28T06:36:28;97381.19;;;-1.36;100.00
3668;BME280;24099;47.102;15.440;2023-01-28T06:38:56;97386.78;;;-1.30;100.00
3668;BME280;24099;47.102;15.440;2023-01-28T06:41:27;97395.34;;;-1.29;100.00
3668;BME280;24099;47.102;15.440;2023-01-28T06:43:56;97398.75;;;-1.29;100.00
3668;BME280;24099;47.102;15.440;2023-01-28T06:46:26;97392.34;;;-1.36;100.00
3668;BME280;24099;47.102;15.440;2023-01-28T06:48:53;97386.66;;;-1.28;100.00
3668;BME280;24099;47.102;15.440;2023-01-28T06:51:22;97400.69;;;-1.20;100.00
3668;BME280;24099;47.102;15.440;2023-01-28T06:53:51;97400.28;;;-1.39;100.00
3668;BME280;24099;47.102;15.440;2023-01-28T06:56:19;97406.06;;;-1.48;100.00
3668;BME280;24099;47.102;15.440;2023-01-28T06:58:49;97411.44;;;-1.39;100.00
3668;BME280;24099;47.102;15.440;2023-01-28T07:01:21;97418.25;;;-1.38;100.00
3668;BME280;24099;47.102;15.440;2023-01-28T07:03:49;97414.66;;;-1.22;100.00
3668;BME280;24099;47.102;15.440;2023-01-28T07:06:19;97413.94;;;-1.24;100.00
3668;BME280;24099;47.102;15.440;2023-01-28T07:08:47;97417.75;;;-1.30;100.00
3668;BME280;24099;47.102;15.440;2023-01-28T07:11:18;97413.81;;;-1.35;100.00
3668;BME280;24099;47.102;15.440;2023-01-28T07:13:46;97414.94;;;-1.40;100.00
3668;BME280;24099;47.102;15.440;2023-01-28T07:16:20;97416.63;;;-1.26;100.00
3668;BME280;24099;47.102;15.440;2023-01-28T07:18:48;97414.22;;;-1.16;100.00
3668;BME280;24099;47.102;15.440;2023-01-28T07:21:18;97414.75;;;-1.11;100.00
3668;BME280;24099;47.102;15.440;2023-01-28T07:23:46;97416.31;;;-1.09;100.00
3668;BME280;24099;47.102;15.440;2023-01-28T07:26:13;97420.00;;;-1.13;100.00
3668;BME280;24099;47.102;15.440;2023-01-28T07:28:47;97423.94;;;-1.07;100.00
3668;BME280;24099;47.102;15.440;2023-01-28T07:31:15;97425.38;;;-1.16;100.00
3668;BME280;24099;47.102;15.440;2023-01-28T07:33:44;97423.25;;;-1.22;100.00
3668;BME280;24099;47.102;15.440;2023-01-28T07:36:25;97424.06;;;-1.09;100.00
3668;BME280;24099;47.102;15.440;2023-01-28T07:38:57;97433.06;;;-1.01;100.00
3668;BME280;24099;47.102;15.440;2023-01-28T07:41:26;97430.13;;;-0.97;100.00
3668;BME280;24099;47.102;15.440;2023-01-28T07:43:55;97426.63;;;-0.96;100.00
3668;BME280;24099;47.102;15.440;2023-01-28T07:46:25;97428.06;;;-0.92;100.00
3668;BME280;24099;47.102;15.440;2023-01-28T07:48:54;97427.88;;;-1.01;100.00
3668;BME280;24099;47.102;15.440;2023-01-28T07:51:22;97433.56;;;-1.09;100.00
3668;BME280;24099;47.102;15.440;2023-01-28T07:53:52;97435.63;;;-1.01;100.00
3668;BME280;24099;47.102;15.440;2023-01-28T07:56:26;97435.72;;;-0.90;100.00
3668;BME280;24099;47.102;15.440;2023-01-28T07:58:56;97433.34;;;-0.93;100.00
3668;BME280;24099;47.102;15.440;2023-01-28T08:01:24;97446.88;;;-0.90;100.00
3668;BME280;24099;47.102;15.440;2023-01-28T08:03:53;97440.47;;;-0.84;100.00
3668;BME280;24099;47.102;15.440;2023-01-28T08:06:20;97435.81;;;-0.92;100.00
3668;BME280;24099;47.102;15.440;2023-01-28T08:08:50;97443.16;;;-0.98;100.00
3668;BME280;24099;47.102;15.440;2023-01-28T08:11:19;97442.66;;;-1.03;100.00
3668;BME280;24099;47.102;15.440;2023-01-28T08:13:47;97442.97;;;-0.83;100.00
3668;BME280;24099;47.102;15.440;2023-01-28T08:16:16;97447.69;;;-0.77;100.00
3668;BME280;24099;47.102;15.440;2023-01-28T08:18:43;97443.16;;;-0.86;100.00
3668;BME280;24099;47.102;15.440;2023-01-28T08:21:12;97446.97;;;-0.79;100.00
3668;BME280;24099;47.102;15.440;2023-01-28T08:23:42;97439.09;;;-0.64;100.00
3668;BME280;24099;47.102;15.440;2023-01-28T08:26:11;97441.59;;;-0.63;100.00
3668;BME280;24099;47.102;15.440;2023-01-28T08:28:46;97447.47;;;-0.61;100.00
3668;BME280;24099;47.102;15.440;2023-01-28T08:31:15;97449.94;;;-0.59;100.00
3668;BME280;24099;47.102;15.440;2023-01-28T08:33:43;97446.25;;;-0.68;100.00
3668;BME280;24099;47.102;15.440;2023-01-28T08:36:14;97452.84;;;-0.77;100.00
3668;BME280;24099;47.102;15.440;2023-01-28T08:38:44;97462.25;;;-0.76;100.00
3668;BME280;24099;47.102;15.440;2023-01-28T08:41:13;97457.81;;;-0.74;100.00
3668;BME280;24099;47.102;15.440;2023-01-28T08:43:42;97465.66;;;-0.75;100.00
3668;BME280;24099;47.102;15.440;2023-01-28T08:46:10;97459.22;;;-0.57;100.00
3668;BME280;24099;47.102;15.440;2023-01-28T08:48:40;97473.00;;;-0.69;100.00
3668;BME280;24099;47.102;15.440;2023-01-28T08:51:09;97472.50;;;-0.61;100.00
3668;BME280;24099;47.102;15.440;2023-01-28T08:53:38;97472.25;;;-0.46;100.00
3668;BME280;24099;47.102;15.440;2023-01-28T08:56:08;97480.25;;;-0.61;100.00
3668;BME280;24099;47.102;15.440;2023-01-28T08:58:37;97482.22;;;-0.65;100.00
3668;BME280;24099;47.102;15.440;2023-01-28T09:01:08;97479.63;;;-0.65;100.00
3668;BME280;24099;47.102;15.440;2023-01-28T09:03:37;97490.91;;;-0.66;100.00
3668;BME280;24099;47.102;15.440;2023-01-28T09:06:06;97487.59;;;-0.81;100.00
3668;BME280;24099;47.102;15.440;2023-01-28T09:08:34;97476.50;;;-0.57;100.00
3668;BME280;24099;47.102;15.440;2023-01-28T09:11:03;97483.44;;;-0.58;100.00
3668;BME280;24099;47.102;15.440;2023-01-28T09:13:31;97493.88;;;-0.47;100.00
3668;BME280;24099;47.102;15.440;2023-01-28T09:15:59;97494.69;;;-0.46;100.00
3668;BME280;24099;47.102;15.440;2023-01-28T09:18:27;97488.38;;;-0.42;100.00
3668;BME280;24099;47.102;15.440;2023-01-28T09:20:56;97485.59;;;-0.52;100.00
3668;BME280;24099;47.102;15.440;2023-01-28T09:23:24;97495.53;;;-0.58;100.00
3668;BME280;24099;47.102;15.440;2023-01-28T09:25:59;97493.78;;;-0.45;100.00
3668;BME280;24099;47.102;15.440;2023-01-28T09:28:28;97492.13;;;-0.46;100.00
3668;BME280;24099;47.102;15.440;2023-01-28T09:31:01;97493.03;;;-0.47;100.00
3668;BME280;24099;47.102;15.440;2023-01-28T09:33:29;97489.22;;;-0.42;100.00
3668;BME280;24099;47.102;15.440;2023-01-28T09:35:59;97496.22;;;-0.31;100.00
3668;BME280;24099;47.102;15.440;2023-01-28T09:38:27;97491.47;;;-0.37;100.00
3668;BME280;24099;47.102;15.440;2023-01-28T09:41:02;97492.31;;;-0.49;100.00
3668;BME280;24099;47.102;15.440;2023-01-28T09:43:53;97496.97;;;-0.54;100.00
3668;BME280;24099;47.102;15.440;2023-01-28T09:46:31;97503.09;;;-0.19;100.00
3668;BME280;24099;47.102;15.440;2023-01-28T09:49:02;97498.69;;;-0.29;100.00
3668;BME280;24099;47.102;15.440;2023-01-28T09:51:35;97498.19;;;-0.35;100.00
3668;BME280;24099;47.102;15.440;2023-01-28T09:54:13;97493.94;;;-0.36;100.00
3668;BME280;24099;47.102;15.440;2023-01-28T09:56:45;97495.50;;;-0.33;100.00
3668;BME280;24099;47.102;15.440;2023-01-28T09:59:20;97485.66;;;-0.28;100.00
3668;BME280;24099;47.102;15.440;2023-01-28T10:01:53;97498.34;;;-0.12;100.00
3668;BME280;24099;47.102;15.440;2023-01-28T10:04:35;97494.91;;;0.00;100.00
3668;BME280;24099;47.102;15.440;2023-01-28T10:07:17;97490.72;;;-0.26;100.00
3668;BME280;24099;47.102;15.440;2023-01-28T10:09:54;97494.75;;;-0.22;100.00
3668;BME280;24099;47.102;15.440;2023-01-28T10:12:38;97486.66;;;-0.18;100.00
3668;BME280;24099;47.102;15.440;2023-01-28T10:15:32;97486.25;;;-0.12;100.00
3668;BME280;24099;47.102;15.440;2023-01-28T10:18:08;97485.31;;;-0.11;100.00
3668;BME280;24099;47.102;15.440;2023-01-28T10:20:40;97486.44;;;-0.02;100.00
3668;BME280;24099;47.102;15.440;2023-01-28T10:23:16;97490.97;;;-0.42;100.00
3668;BME280;24099;47.102;15.440;2023-01-28T10:25:47;97492.28;;;-0.24;100.00
3668;BME280;24099;47.102;15.440;2023-01-28T10:28:19;97492.59;;;-0.28;100.00
3668;BME280;24099;47.102;15.440;2023-01-28T10:30:50;97490.63;;;-0.25;100.00
3668;BME280;24099;47.102;15.440;2023-01-28T10:33:21;97499.09;;;-0.23;100.00
3668;BME280;24099;47.102;15.440;2023-01-28T10:35:50;97483.50;;;-0.21;100.00
3668;BME280;24099;47.102;15.440;2023-01-28T10:38:21;97484.31;;;-0.21;100.00
3668;BME280;24099;47.102;15.440;2023-01-28T10:40:49;97488.03;;;-0.38;100.00
3668;BME280;24099;47.102;15.440;2023-01-28T10:43:20;97481.47;;;-0.18;100.00
3668;BME280;24099;47.102;15.440;2023-01-28T10:45:56;97491.09;;;-0.07;100.00
3668;BME280;24099;47.102;15.440;2023-01-28T10:48:25;97485.66;;;-0.28;100.00
3668;BME280;24099;47.102;15.440;2023-01-28T10:50:58;97479.41;;;-0.62;100.00
3668;BME280;24099;47.102;15.440;2023-01-28T10:53:35;97482.81;;;-0.49;100.00
3668;BME280;24099;47.102;15.440;2023-01-28T10:56:04;97490.41;;;-0.22;100.00
3668;BME280;24099;47.102;15.440;2023-01-28T10:58:45;97480.28;;;-0.38;100.00
3668;BME280;24099;47.102;15.440;2023-01-28T11:01:17;97485.25;;;-0.22;100.00
3668;BME280;24099;47.102;15.440;2023-01-28T11:03:53;97481.94;;;-0.24;100.00
3668;BME280;24099;47.102;15.440;2023-01-28T11:06:25;97479.00;;;-0.19;100.00
3668;BME280;24099;47.102;15.440;2023-01-28T11:08:53;97474.13;;;-0.11;100.00
3668;BME280;24099;47.102;15.440;2023-01-28T11:11:25;97476.00;;;-0.13;100.00
3668;BME280;24099;47.102;15.440;2023-01-28T11:13:53;97479.84;;;-0.19;100.00
3668;BME280;24099;47.102;15.440;2023-01-28T11:16:25;97470.09;;;-0.03;100.00
3668;BME280;24099;47.102;15.440;2023-01-28T11:18:54;97470.94;;;-0.15;100.00
3668;BME280;24099;47.102;15.440;2023-01-28T11:21:25;97468.06;;;-0.23;100.00
3668;BME280;24099;47.102;15.440;2023-01-28T11:23:56;97471.66;;;-0.13;100.00
3668;BME280;24099;47.102;15.440;2023-01-28T11:26:28;97471.94;;;-0.05;100.00
3668;BME280;24099;47.102;15.440;2023-01-28T11:28:57;97464.13;;;0.08;100.00
3668;BME280;24099;47.102;15.440;2023-01-28T11:31:27;97468.97;;;0.13;100.00
3668;BME280;24099;47.102;15.440;2023-01-28T11:33:56;97461.59;;;-0.05;100.00
3668;BME280;24099;47.102;15.440;2023-01-28T11:36:26;97460.38;;;-0.12;100.00
3668;BME280;24099;47.102;15.440;2023-01-28T11:38:57;97456.91;;;0.00;100.00
3668;BME280;24099;47.102;15.440;2023-01-28T11:41:28;97453.84;;;-0.05;100.00
3668;BME280;24099;47.102;15.440;2023-01-28T11:43:59;97446.56;;;0.00;100.00
3668;BME280;24099;47.102;15.440;2023-01-28T11:46:47;97452.34;;;0.04;100.00
3668;BME280;24099;47.102;15.440;2023-01-28T11:49:25;97455.72;;;-0.19;100.00
3668;BME280;24099;47.102;15.440;2023-01-28T11:52:03;97451.53;;;-0.20;100.00
3668;BME280;24099;47.102;15.440;2023-01-28T11:54:43;97459.94;;;-0.06;100.00
3668;BME280;24099;47.102;15.440;2023-01-28T11:57:20;97454.31;;;0.00;100.00
3668;BME280;24099;47.102;15.440;2023-01-28T12:03:10;97447.59;;;0.22;100.00
3668;BME280;24099;47.102;15.440;2023-01-28T12:05:50;97454.00;;;0.05;100.00
3668;BME280;24099;47.102;15.440;2023-01-28T12:08:21;97450.47;;;0.06;100.00
3668;BME280;24099;47.102;15.440;2023-01-28T12:11:18;97448.72;;;0.07;100.00
3668;BME280;24099;47.102;15.440;2023-01-28T12:14:20;97442.34;;;-0.01;100.00
3668;BME280;24099;47.102;15.440;2023-01-28T12:17:01;97440.91;;;0.19;100.00
3668;BME280;24099;47.102;15.440;2023-01-28T12:19:52;97432.44;;;0.17;100.00
3668;BME280;24099;47.102;15.440;2023-01-28T12:25:51;97432.03;;;0.11;100.00
3668;BME280;24099;47.102;15.440;2023-01-28T12:28:29;97435.00;;;0.17;100.00
3668;BME280;24099;47.102;15.440;2023-01-28T12:31:16;97423.84;;;0.17;100.00
3668;BME280;24099;47.102;15.440;2023-01-28T12:34:02;97429.66;;;0.08;100.00
3668;BME280;24099;47.102;15.440;2023-01-28T12:36:42;97431.38;;;0.20;100.00
3668;BME280;24099;47.102;15.440;2023-01-28T12:39:23;97438.16;;;0.10;100.00
3668;BME280;24099;47.102;15.440;2023-01-28T12:41:57;97432.91;;;0.22;100.00
3668;BME280;24099;47.102;15.440;2023-01-28T12:44:30;97441.06;;;0.29;100.00
3668;BME280;24099;47.102;15.440;2023-01-28T12:47:02;97438.97;;;0.34;100.00
3668;BME280;24099;47.102;15.440;2023-01-28T12:49:36;97440.28;;;0.40;100.00
3668;BME280;24099;47.102;15.440;2023-01-28T12:52:12;97446.66;;;0.23;100.00
3668;BME280;24099;47.102;15.440;2023-01-28T12:54:43;97444.53;;;0.17;100.00
3668;BME280;24099;47.102;15.440;2023-01-28T12:57:20;97439.50;;;0.03;100.00
3668;BME280;24099;47.102;15.440;2023-01-28T12:59:51;97443.09;;;0.13;100.00
3668;BME280;24099;47.102;15.440;2023-01-28T13:02:25;97439.50;;;0.26;100.00
3668;BME280;24099;47.102;15.440;2023-01-28T13:05:02;97441.00;;;0.18;100.00
3668;BME280;24099;47.102;15.440;2023-01-28T13:07:37;97445.69;;;0.13;100.00
3668;BME280;24099;47.102;15.440;2023-01-28T13:10:16;97442.09;;;0.26;100.00
3668;BME280;24099;47.102;15.440;2023-01-28T13:12:47;97443.81;;;0.15;100.00
3668;BME280;24099;47.102;15.440;2023-01-28T13:15:17;97452.13;;;0.31;100.00
3668;BME280;24099;47.102;15.440;2023-01-28T13:17:57;97446.72;;;0.10;100.00
3668;BME280;24099;47.102;15.440;2023-01-28T13:20:36;97456.47;;;0.30;100.00
3668;BME280;24099;47.102;15.440;2023-01-28T13:23:22;97444.91;;;0.23;100.00
3668;BME280;24099;47.102;15.440;2023-01-28T13:25:52;97448.88;;;0.16;100.00
3668;BME280;24099;47.102;15.440;2023-01-28T13:28:28;97459.88;;;0.31;100.00
3668;BME280;24099;47.102;15.440;2023-01-28T13:31:04;97458.63;;;0.37;100.00
3668;BME280;24099;47.102;15.440;2023-01-28T13:33:33;97458.66;;;0.24;100.00
3668;BME280;24099;47.102;15.440;2023-01-28T13:36:05;97462.03;;;0.37;100.00